METAR Data
IDs: Format: Raw Decoded Include TAF

Data at: 0351 UTC 06 Dec 2019

METAR for:KDVN (Davenport Muni, IA, US)
Text:KDVN 060252Z AUTO 21007KT 10SM CLR 06/02 A2994 RMK AO2 SLP141 T00610017 53001
Temperature: 6.1°C ( 43°F)
Dewpoint: 1.7°C ( 35°F) [RH = 73%]
Pressure (altimeter):29.94 inches Hg (1014.0 mb) [Sea level pressure: 1014.1 mb]
Winds:from the SSW (210 degrees) at 8 MPH (7 knots; 3.6 m/s)
Visibility:10 or more sm (16+ km)
Ceiling:at least 12,000 feet AGL
Clouds:sky clear below 12,000 feet AGL
QC Flag:automated observation with no human augmentation